sensor_id;sensor_type;location;lat;lon;timestamp;temperature;humidity
8832;DHT22;4452;50.756;4.472;2022-07-22T00:02:15;14.90;99.90
8832;DHT22;4452;50.756;4.472;2022-07-22T00:04:41;14.80;99.90
8832;DHT22;4452;50.756;4.472;2022-07-22T00:07:07;14.70;99.90
8832;DHT22;4452;50.756;4.472;2022-07-22T00:09:32;14.60;99.90
8832;DHT22;4452;50.756;4.472;2022-07-22T00:11:58;14.60;99.90
8832;DHT22;4452;50.756;4.472;2022-07-22T00:14:24;14.60;99.90
8832;DHT22;4452;50.756;4.472;2022-07-22T00:16:50;14.50;99.90
8832;DHT22;4452;50.756;4.472;2022-07-22T00:19:16;14.60;99.90
8832;DHT22;4452;50.756;4.472;2022-07-22T00:21:42;14.50;99.90
8832;DHT22;4452;50.756;4.472;2022-07-22T00:24:08;14.60;99.90
8832;DHT22;4452;50.756;4.472;2022-07-22T00:26:33;14.50;99.90
8832;DHT22;4452;50.756;4.472;2022-07-22T00:28:59;14.40;99.90
8832;DHT22;4452;50.756;4.472;2022-07-22T00:31:25;14.40;99.90
8832;DHT22;4452;50.756;4.472;2022-07-22T00:33:50;14.40;99.90
8832;DHT22;4452;50.756;4.472;2022-07-22T00:36:16;14.40;99.90
8832;DHT22;4452;50.756;4.472;2022-07-22T00:38:42;14.30;99.90
8832;DHT22;4452;50.756;4.472;2022-07-22T00:41:07;14.40;99.90
8832;DHT22;4452;50.756;4.472;2022-07-22T00:43:53;14.30;99.90
8832;DHT22;4452;50.756;4.472;2022-07-22T00:46:19;14.30;99.90
8832;DHT22;4452;50.756;4.472;2022-07-22T00:48:46;14.20;99.90
8832;DHT22;4452;50.756;4.472;2022-07-22T00:51:11;14.20;99.90
8832;DHT22;4452;50.756;4.472;2022-07-22T00:53:37;14.20;99.90
8832;DHT22;4452;50.756;4.472;2022-07-22T00:56:03;14.10;99.90
8832;DHT22;4452;50.756;4.472;2022-07-22T00:58:29;14.10;99.90
8832;DHT22;4452;50.756;4.472;2022-07-22T01:00:55;14.10;99.90
8832;DHT22;4452;50.756;4.472;2022-07-22T01:03:21;14.10;99.90
8832;DHT22;4452;50.756;4.472;2022-07-22T01:05:46;14.10;99.90
8832;DHT22;4452;50.756;4.472;2022-07-22T01:08:12;14.00;99.90
8832;DHT22;4452;50.756;4.472;2022-07-22T01:10:38;14.00;99.90
8832;DHT22;4452;50.756;4.472;2022-07-22T01:13:04;14.00;99.90
8832;DHT22;4452;50.756;4.472;2022-07-22T01:15:29;14.00;99.90
8832;DHT22;4452;50.756;4.472;2022-07-22T01:17:55;14.00;99.90
8832;DHT22;4452;50.756;4.472;2022-07-22T01:20:21;13.90;99.90
8832;DHT22;4452;50.756;4.472;2022-07-22T01:22:46;13.90;99.90
8832;DHT22;4452;50.756;4.472;2022-07-22T01:25:12;13.80;99.90
8832;DHT22;4452;50.756;4.472;2022-07-22T01:27:38;13.80;99.90
8832;DHT22;4452;50.756;4.472;2022-07-22T01:30:05;13.80;99.90
8832;DHT22;4452;50.756;4.472;2022-07-22T01:32:31;13.80;99.90
8832;DHT22;4452;50.756;4.472;2022-07-22T01:34:56;13.80;99.90
8832;DHT22;4452;50.756;4.472;2022-07-22T01:37:22;13.80;99.90
8832;DHT22;4452;50.756;4.472;2022-07-22T01:39:49;13.80;99.90
8832;DHT22;4452;50.756;4.472;2022-07-22T01:42:14;13.80;99.90
8832;DHT22;4452;50.756;4.472;2022-07-22T01:44:40;13.80;99.90
8832;DHT22;4452;50.756;4.472;2022-07-22T01:47:07;13.70;99.90
8832;DHT22;4452;50.756;4.472;2022-07-22T01:49:32;13.70;99.90
8832;DHT22;4452;50.756;4.472;2022-07-22T01:52:00;13.70;99.90
8832;DHT22;4452;50.756;4.472;2022-07-22T01:54:26;13.70;99.90
8832;DHT22;4452;50.756;4.472;2022-07-22T01:56:51;13.70;99.90
8832;DHT22;4452;50.756;4.472;2022-07-22T01:59:17;13.70;99.90
8832;DHT22;4452;50.756;4.472;2022-07-22T02:01:43;13.70;99.90
8832;DHT22;4452;50.756;4.472;2022-07-22T02:04:08;13.60;99.90
8832;DHT22;4452;50.756;4.472;2022-07-22T02:06:34;13.60;99.90
8832;DHT22;4452;50.756;4.472;2022-07-22T02:09:00;13.60;99.90
8832;DHT22;4452;50.756;4.472;2022-07-22T02:11:25;13.60;99.90
8832;DHT22;4452;50.756;4.472;2022-07-22T02:13:51;13.50;99.90
8832;DHT22;4452;50.756;4.472;2022-07-22T02:16:17;13.50;99.90
8832;DHT22;4452;50.756;4.472;2022-07-22T02:18:43;13.50;99.90
8832;DHT22;4452;50.756;4.472;2022-07-22T02:21:08;13.50;99.90
8832;DHT22;4452;50.756;4.472;2022-07-22T02:23:34;13.50;99.90
8832;DHT22;4452;50.756;4.472;2022-07-22T02:25:59;13.50;99.90
8832;DHT22;4452;50.756;4.472;2022-07-22T02:28:25;13.40;99.90
8832;DHT22;4452;50.756;4.472;2022-07-22T02:30:51;13.40;99.90
8832;DHT22;4452;50.756;4.472;2022-07-22T02:33:17;13.50;99.90
8832;DHT22;4452;50.756;4.472;2022-07-22T02:35:42;13.50;99.90
8832;DHT22;4452;50.756;4.472;2022-07-22T02:38:08;13.50;99.90
8832;DHT22;4452;50.756;4.472;2022-07-22T02:40:33;13.50;99.90
8832;DHT22;4452;50.756;4.472;2022-07-22T02:43:00;13.50;99.90
8832;DHT22;4452;50.756;4.472;2022-07-22T02:45:25;13.50;99.90
8832;DHT22;4452;50.756;4.472;2022-07-22T02:47:54;13.50;99.90
8832;DHT22;4452;50.756;4.472;2022-07-22T02:50:21;13.50;99.90
8832;DHT22;4452;50.756;4.472;2022-07-22T02:52:47;13.40;99.90
8832;DHT22;4452;50.756;4.472;2022-07-22T02:55:13;13.40;99.90
8832;DHT22;4452;50.756;4.472;2022-07-22T02:57:39;13.40;99.90
8832;DHT22;4452;50.756;4.472;2022-07-22T03:00:09;13.40;99.90
8832;DHT22;4452;50.756;4.472;2022-07-22T03:02:35;13.40;99.90
8832;DHT22;4452;50.756;4.472;2022-07-22T03:05:02;13.30;99.90
8832;DHT22;4452;50.756;4.472;2022-07-22T03:07:28;13.40;99.90
8832;DHT22;4452;50.756;4.472;2022-07-22T03:09:53;13.40;99.90
8832;DHT22;4452;50.756;4.472;2022-07-22T03:12:19;13.30;99.90
8832;DHT22;4452;50.756;4.472;2022-07-22T03:14:44;13.30;99.90
8832;DHT22;4452;50.756;4.472;2022-07-22T03:17:10;13.30;99.90
8832;DHT22;4452;50.756;4.472;2022-07-22T03:19:36;13.30;99.90
8832;DHT22;4452;50.756;4.472;2022-07-22T03:22:01;13.30;99.90
8832;DHT22;4452;50.756;4.472;2022-07-22T03:24:27;13.30;99.90
8832;DHT22;4452;50.756;4.472;2022-07-22T03:26:52;13.30;99.90
8832;DHT22;4452;50.756;4.472;2022-07-22T03:29:18;13.20;99.90
8832;DHT22;4452;50.756;4.472;2022-07-22T03:31:44;13.30;99.90
8832;DHT22;4452;50.756;4.472;2022-07-22T03:34:09;13.30;99.90
8832;DHT22;4452;50.756;4.472;2022-07-22T03:36:35;13.30;99.90
8832;DHT22;4452;50.756;4.472;2022-07-22T03:39:01;13.30;99.90
8832;DHT22;4452;50.756;4.472;2022-07-22T03:41:27;13.20;99.90
8832;DHT22;4452;50.756;4.472;2022-07-22T03:43:52;13.20;99.90
8832;DHT22;4452;50.756;4.472;2022-07-22T03:46:18;13.20;99.90
8832;DHT22;4452;50.756;4.472;2022-07-22T03:48:43;13.20;99.90
8832;DHT22;4452;50.756;4.472;2022-07-22T03:51:09;13.20;99.90
8832;DHT22;4452;50.756;4.472;2022-07-22T03:53:35;13.20;99.90
8832;DHT22;4452;50.756;4.472;2022-07-22T03:56:00;13.20;99.90
8832;DHT22;4452;50.756;4.472;2022-07-22T03:58:26;13.30;99.90
8832;DHT22;4452;50.756;4.472;2022-07-22T04:00:53;13.30;99.90
8832;DHT22;4452;50.756;4.472;2022-07-22T04:03:19;13.30;99.90
8832;DHT22;4452;50.756;4.472;2022-07-22T04:05:45;13.30;99.90
8832;DHT22;4452;50.756;4.472;2022-07-22T04:08:12;13.30;99.90
8832;DHT22;4452;50.756;4.472;2022-07-22T04:10:38;13.30;99.90
8832;DHT22;4452;50.756;4.472;2022-07-22T04:13:05;13.30;99.90
8832;DHT22;4452;50.756;4.472;2022-07-22T04:15:30;13.20;99.90
8832;DHT22;4452;50.756;4.472;2022-07-22T04:17:56;13.30;99.90
8832;DHT22;4452;50.756;4.472;2022-07-22T04:20:22;13.30;99.90
8832;DHT22;4452;50.756;4.472;2022-07-22T04:22:48;13.30;99.90
8832;DHT22;4452;50.756;4.472;2022-07-22T04:25:13;13.30;99.90
8832;DHT22;4452;50.756;4.472;2022-07-22T04:27:40;13.30;99.90
8832;DHT22;4452;50.756;4.472;2022-07-22T04:30:06;13.30;99.90
8832;DHT22;4452;50.756;4.472;2022-07-22T04:32:32;13.40;99.90
8832;DHT22;4452;50.756;4.472;2022-07-22T04:34:58;13.40;99.90
8832;DHT22;4452;50.756;4.472;2022-07-22T04:37:24;13.40;99.90
8832;DHT22;4452;50.756;4.472;2022-07-22T04:39:49;13.50;99.90
8832;DHT22;4452;50.756;4.472;2022-07-22T04:42:15;13.50;99.90
8832;DHT22;4452;50.756;4.472;2022-07-22T04:44:41;13.60;99.90
8832;DHT22;4452;50.756;4.472;2022-07-22T04:47:06;13.60;99.90
8832;DHT22;4452;50.756;4.472;2022-07-22T04:49:32;13.70;99.90
8832;DHT22;4452;50.756;4.472;2022-07-22T04:51:58;13.70;99.90
8832;DHT22;4452;50.756;4.472;2022-07-22T04:54:23;13.90;99.90
8832;DHT22;4452;50.756;4.472;2022-07-22T04:56:49;14.10;99.90
8832;DHT22;4452;50.756;4.472;2022-07-22T04:59:15;14.20;99.90
8832;DHT22;4452;50.756;4.472;2022-07-22T05:01:40;14.30;99.90
8832;DHT22;4452;50.756;4.472;2022-07-22T05:04:06;14.40;99.90
8832;DHT22;4452;50.756;4.472;2022-07-22T05:06:32;14.50;99.90
8832;DHT22;4452;50.756;4.472;2022-07-22T05:08:57;14.70;99.90
8832;DHT22;4452;50.756;4.472;2022-07-22T05:11:23;14.60;99.90
8832;DHT22;4452;50.756;4.472;2022-07-22T05:13:49;14.80;99.90
8832;DHT22;4452;50.756;4.472;2022-07-22T05:16:15;14.70;99.90
8832;DHT22;4452;50.756;4.472;2022-07-22T05:18:40;14.80;99.90
8832;DHT22;4452;50.756;4.472;2022-07-22T05:21:06;14.80;99.90
8832;DHT22;4452;50.756;4.472;2022-07-22T05:23:32;14.80;99.90
8832;DHT22;4452;50.756;4.472;2022-07-22T05:25:58;14.70;99.90
8832;DHT22;4452;50.756;4.472;2022-07-22T05:28:23;14.70;99.90
8832;DHT22;4452;50.756;4.472;2022-07-22T05:30:49;14.70;99.90
8832;DHT22;4452;50.756;4.472;2022-07-22T05:33:15;14.80;99.90
8832;DHT22;4452;50.756;4.472;2022-07-22T05:35:41;14.80;99.90
8832;DHT22;4452;50.756;4.472;2022-07-22T05:38:07;15.00;99.90
8832;DHT22;4452;50.756;4.472;2022-07-22T05:40:32;15.10;99.90
8832;DHT22;4452;50.756;4.472;2022-07-22T05:42:58;15.20;99.90
8832;DHT22;4452;50.756;4.472;2022-07-22T05:45:24;15.30;99.90
8832;DHT22;4452;50.756;4.472;2022-07-22T05:47:49;15.40;99.90
8832;DHT22;4452;50.756;4.472;2022-07-22T05:50:15;15.50;99.90
8832;DHT22;4452;50.756;4.472;2022-07-22T05:52:41;15.70;99.90
8832;DHT22;4452;50.756;4.472;2022-07-22T05:55:07;15.80;99.90
8832;DHT22;4452;50.756;4.472;2022-07-22T05:57:33;15.90;99.90
8832;DHT22;4452;50.756;4.472;2022-07-22T06:00:02;15.90;99.90
8832;DHT22;4452;50.756;4.472;2022-07-22T06:02:28;16.00;99.90
8832;DHT22;4452;50.756;4.472;2022-07-22T06:04:54;16.20;99.90
8832;DHT22;4452;50.756;4.472;2022-07-22T06:07:20;16.20;99.90
8832;DHT22;4452;50.756;4.472;2022-07-22T06:09:46;16.20;99.90
8832;DHT22;4452;50.756;4.472;2022-07-22T06:12:11;16.30;99.90
8832;DHT22;4452;50.756;4.472;2022-07-22T06:14:37;16.40;99.90
8832;DHT22;4452;50.756;4.472;2022-07-22T06:17:03;16.60;99.90
8832;DHT22;4452;50.756;4.472;2022-07-22T06:19:29;16.50;99.90
8832;DHT22;4452;50.756;4.472;2022-07-22T06:21:56;16.60;99.90
8832;DHT22;4452;50.756;4.472;2022-07-22T06:24:21;16.60;99.90
8832;DHT22;4452;50.756;4.472;2022-07-22T06:26:47;16.70;99.90
8832;DHT22;4452;50.756;4.472;2022-07-22T06:29:13;16.80;99.90
8832;DHT22;4452;50.756;4.472;2022-07-22T06:31:38;16.80;99.90
8832;DHT22;4452;50.756;4.472;2022-07-22T06:34:04;17.00;99.90
8832;DHT22;4452;50.756;4.472;2022-07-22T06:36:34;17.30;99.90
8832;DHT22;4452;50.756;4.472;2022-07-22T06:38:59;17.30;99.90
8832;DHT22;4452;50.756;4.472;2022-07-22T06:41:26;17.10;99.90
8832;DHT22;4452;50.756;4.472;2022-07-22T06:43:52;17.20;99.90
8832;DHT22;4452;50.756;4.472;2022-07-22T06:46:18;17.50;99.90
8832;DHT22;4452;50.756;4.472;2022-07-22T06:48:43;17.60;99.90
8832;DHT22;4452;50.756;4.472;2022-07-22T06:51:09;17.70;99.90
8832;DHT22;4452;50.756;4.472;2022-07-22T06:53:35;17.80;99.90
8832;DHT22;4452;50.756;4.472;2022-07-22T06:56:01;17.90;99.90
8832;DHT22;4452;50.756;4.472;2022-07-22T06:58:26;17.90;99.90
8832;DHT22;4452;50.756;4.472;2022-07-22T07:00:52;17.80;99.90
8832;DHT22;4452;50.756;4.472;2022-07-22T07:03:18;17.90;99.90
8832;DHT22;4452;50.756;4.472;2022-07-22T07:05:45;18.10;99.90
8832;DHT22;4452;50.756;4.472;2022-07-22T07:08:10;18.40;99.90
8832;DHT22;4452;50.756;4.472;2022-07-22T07:10:36;18.50;99.90
8832;DHT22;4452;50.756;4.472;2022-07-22T07:13:02;18.60;99.90
8832;DHT22;4452;50.756;4.472;2022-07-22T07:15:28;18.70;99.90
8832;DHT22;4452;50.756;4.472;2022-07-22T07:17:55;18.70;99.90
8832;DHT22;4452;50.756;4.472;2022-07-22T07:20:21;18.90;99.90
8832;DHT22;4452;50.756;4.472;2022-07-22T07:22:47;18.80;99.90
8832;DHT22;4452;50.756;4.472;2022-07-22T07:25:14;18.90;99.90
8832;DHT22;4452;50.756;4.472;2022-07-22T07:27:40;19.00;99.90
8832;DHT22;4452;50.756;4.472;2022-07-22T07:30:07;19.00;99.90
8832;DHT22;4452;50.756;4.472;2022-07-22T07:32:35;18.90;99.90
8832;DHT22;4452;50.756;4.472;2022-07-22T07:35:02;18.80;99.90
8832;DHT22;4452;50.756;4.472;2022-07-22T07:37:28;18.70;99.90
8832;DHT22;4452;50.756;4.472;2022-07-22T07:39:54;18.80;99.90
8832;DHT22;4452;50.756;4.472;2022-07-22T07:42:19;18.70;99.90
8832;DHT22;4452;50.756;4.472;2022-07-22T07:44:45;18.90;99.90
8832;DHT22;4452;50.756;4.472;2022-07-22T07:47:11;18.80;99.90
8832;DHT22;4452;50.756;4.472;2022-07-22T07:49:38;18.80;99.90
8832;DHT22;4452;50.756;4.472;2022-07-22T07:52:04;18.70;99.90
8832;DHT22;4452;50.756;4.472;2022-07-22T07:54:29;18.70;99.90
8832;DHT22;4452;50.756;4.472;2022-07-22T07:56:55;18.80;99.90
8832;DHT22;4452;50.756;4.472;2022-07-22T07:59:21;18.80;99.90
8832;DHT22;4452;50.756;4.472;2022-07-22T08:01:47;18.80;99.90
8832;DHT22;4452;50.756;4.472;2022-07-22T08:04:13;18.80;99.90
8832;DHT22;4452;50.756;4.472;2022-07-22T08:06:38;18.70;99.90
8832;DHT22;4452;50.756;4.472;2022-07-22T08:09:04;19.10;99.90
8832;DHT22;4452;50.756;4.472;2022-07-22T08:11:30;19.30;99.90
8832;DHT22;4452;50.756;4.472;2022-07-22T08:13:55;19.30;99.90
8832;DHT22;4452;50.756;4.472;2022-07-22T08:16:21;19.20;99.90
8832;DHT22;4452;50.756;4.472;2022-07-22T08:18:47;19.50;99.90
8832;DHT22;4452;50.756;4.472;2022-07-22T08:21:12;19.70;99.90
8832;DHT22;4452;50.756;4.472;2022-07-22T08:23:38;19.30;99.90
8832;DHT22;4452;50.756;4.472;2022-07-22T08:26:03;19.20;99.90
8832;DHT22;4452;50.756;4.472;2022-07-22T08:28:29;19.10;99.90
8832;DHT22;4452;50.756;4.472;2022-07-22T08:30:55;19.20;99.90
8832;DHT22;4452;50.756;4.472;2022-07-22T08:33:21;19.40;99.90
8832;DHT22;4452;50.756;4.472;2022-07-22T08:35:46;19.40;99.90
8832;DHT22;4452;50.756;4.472;2022-07-22T08:38:12;19.60;99.90
8832;DHT22;4452;50.756;4.472;2022-07-22T08:40:37;19.80;99.90
8832;DHT22;4452;50.756;4.472;2022-07-22T08:43:04;19.90;99.90
8832;DHT22;4452;50.756;4.472;2022-07-22T08:45:30;19.60;99.90
8832;DHT22;4452;50.756;4.472;2022-07-22T08:47:57;19.50;99.90
8832;DHT22;4452;50.756;4.472;2022-07-22T08:50:25;19.90;99.90
8832;DHT22;4452;50.756;4.472;2022-07-22T08:52:51;20.30;99.90
8832;DHT22;4452;50.756;4.472;2022-07-22T08:55:16;20.50;99.90
8832;DHT22;4452;50.756;4.472;2022-07-22T08:57:46;20.70;99.90
8832;DHT22;4452;50.756;4.472;2022-07-22T09:00:15;20.70;99.90
8832;DHT22;4452;50.756;4.472;2022-07-22T09:02:42;20.90;99.90
8832;DHT22;4452;50.756;4.472;2022-07-22T09:05:10;21.20;99.90
8832;DHT22;4452;50.756;4.472;2022-07-22T09:07:38;21.10;99.90
8832;DHT22;4452;50.756;4.472;2022-07-22T09:10:07;21.40;99.90
8832;DHT22;4452;50.756;4.472;2022-07-22T09:12:32;21.20;99.90
8832;DHT22;4452;50.756;4.472;2022-07-22T09:15:01;21.40;99.90
8832;DHT22;4452;50.756;4.472;2022-07-22T09:17:35;20.80;99.90
8832;DHT22;4452;50.756;4.472;2022-07-22T09:20:05;20.70;99.90
8832;DHT22;4452;50.756;4.472;2022-07-22T09:22:45;20.40;99.90
8832;DHT22;4452;50.756;4.472;2022-07-22T09:25:24;20.50;99.90
8832;DHT22;4452;50.756;4.472;2022-07-22T09:27:53;21.00;99.90
8832;DHT22;4452;50.756;4.472;2022-07-22T09:30:24;21.10;99.90
8832;DHT22;4452;50.756;4.472;2022-07-22T09:32:52;21.30;99.90
8832;DHT22;4452;50.756;4.472;2022-07-22T09:35:18;21.70;99.90
8832;DHT22;4452;50.756;4.472;2022-07-22T09:37:53;21.70;99.90
8832;DHT22;4452;50.756;4.472;2022-07-22T09:40:30;21.90;99.90
8832;DHT22;4452;50.756;4.472;2022-07-22T09:43:01;22.20;99.90
8832;DHT22;4452;50.756;4.472;2022-07-22T09:45:29;22.70;99.90
8832;DHT22;4452;50.756;4.472;2022-07-22T09:47:56;22.50;99.90
8832;DHT22;4452;50.756;4.472;2022-07-22T09:50:27;22.20;99.90
8832;DHT22;4452;50.756;4.472;2022-07-22T09:52:54;22.20;99.90
8832;DHT22;4452;50.756;4.472;2022-07-22T09:55:22;22.50;99.90
8832;DHT22;4452;50.756;4.472;2022-07-22T09:57:50;21.80;99.90
8832;DHT22;4452;50.756;4.472;2022-07-22T10:00:19;21.60;99.90
8832;DHT22;4452;50.756;4.472;2022-07-22T10:05:12;21.60;99.90
8832;DHT22;4452;50.756;4.472;2022-07-22T10:07:43;21.90;99.90
8832;DHT22;4452;50.756;4.472;2022-07-22T10:10:10;22.50;99.90
8832;DHT22;4452;50.756;4.472;2022-07-22T10:12:37;22.40;99.90
8832;DHT22;4452;50.756;4.472;2022-07-22T10:15:08;22.00;99.90
8832;DHT22;4452;50.756;4.472;2022-07-22T10:17:38;22.30;99.90
8832;DHT22;4452;50.756;4.472;2022-07-22T10:20:07;23.00;99.90
8832;DHT22;4452;50.756;4.472;2022-07-22T10:25:10;22.50;99.90
8832;DHT22;4452;50.756;4.472;2022-07-22T10:30:30;22.50;99.90
8832;DHT22;4452;50.756;4.472;2022-07-22T10:35:36;22.50;99.90
8832;DHT22;4452;50.756;4.472;2022-07-22T10:38:07;22.90;99.90
8832;DHT22;4452;50.756;4.472;2022-07-22T10:45:51;23.20;99.90
8832;DHT22;4452;50.756;4.472;2022-07-22T10:48:24;23.00;99.90
8832;DHT22;4452;50.756;4.472;2022-07-22T10:51:08;23.40;99.90
8832;DHT22;4452;50.756;4.472;2022-07-22T10:59:08;22.90;99.90
8832;DHT22;4452;50.756;4.472;2022-07-22T11:01:37;22.70;99.90
8832;DHT22;4452;50.756;4.472;2022-07-22T11:06:40;23.30;99.90
8832;DHT22;4452;50.756;4.472;2022-07-22T11:09:10;23.80;99.90
8832;DHT22;4452;50.756;4.472;2022-07-22T11:14:20;23.20;99.90
8832;DHT22;4452;50.756;4.472;2022-07-22T11:16:48;22.80;99.90
8832;DHT22;4452;50.756;4.472;2022-07-22T11:19:14;23.40;99.90
8832;DHT22;4452;50.756;4.472;2022-07-22T11:21:58;23.50;99.90
8832;DHT22;4452;50.756;4.472;2022-07-22T11:24:25;23.20;99.90
8832;DHT22;4452;50.756;4.472;2022-07-22T11:26:53;23.30;99.90
8832;DHT22;4452;50.756;4.472;2022-07-22T11:29:31;23.80;99.90
8832;DHT22;4452;50.756;4.472;2022-07-22T11:32:00;23.80;99.90
8832;DHT22;4452;50.756;4.472;2022-07-22T11:34:26;23.60;99.90
8832;DHT22;4452;50.756;4.472;2022-07-22T11:36:52;23.40;99.90
8832;DHT22;4452;50.756;4.472;2022-07-22T11:39:24;23.70;99.90
8832;DHT22;4452;50.756;4.472;2022-07-22T11:41:52;23.90;99.90
8832;DHT22;4452;50.756;4.472;2022-07-22T11:44:23;23.90;99.90
8832;DHT22;4452;50.756;4.472;2022-07-22T11:46:50;23.70;99.90
8832;DHT22;4452;50.756;4.472;2022-07-22T11:49:20;24.10;99.90
8832;DHT22;4452;50.756;4.472;2022-07-22T11:51:46;24.10;99.90
8832;DHT22;4452;50.756;4.472;2022-07-22T11:54:13;23.60;99.90
8832;DHT22;4452;50.756;4.472;2022-07-22T11:56:39;23.60;99.90
8832;DHT22;4452;50.756;4.472;2022-07-22T11:59:06;24.20;99.90
8832;DHT22;4452;50.756;4.472;2022-07-22T12:01:35;24.30;99.90
8832;DHT22;4452;50.756;4.472;2022-07-22T12:04:06;24.10;99.90
8832;DHT22;4452;50.756;4.472;2022-07-22T12:06:34;24.40;99.90
8832;DHT22;4452;50.756;4.472;2022-07-22T12:09:14;24.40;99.90
8832;DHT22;4452;50.756;4.472;2022-07-22T12:11:43;23.80;99.90
8832;DHT22;4452;50.756;4.472;2022-07-22T12:14:17;24.60;99.90
8832;DHT22;4452;50.756;4.472;2022-07-22T12:19:19;24.50;99.90
8832;DHT22;4452;50.756;4.472;2022-07-22T12:27:04;24.70;99.90
8832;DHT22;4452;50.756;4.472;2022-07-22T12:29:42;24.30;99.90
8832;DHT22;4452;50.756;4.472;2022-07-22T12:37:25;23.90;99.90
8832;DHT22;4452;50.756;4.472;2022-07-22T12:40:05;23.90;99.90
8832;DHT22;4452;50.756;4.472;2022-07-22T12:42:34;23.60;99.90
8832;DHT22;4452;50.756;4.472;2022-07-22T12:55:48;25.40;99.90
8832;DHT22;4452;50.756;4.472;2022-07-22T12:58:15;25.60;99.90
8832;DHT22;4452;50.756;4.472;2022-07-22T13:00:43;25.50;99.90
8832;DHT22;4452;50.756;4.472;2022-07-22T13:03:09;25.70;99.90
8832;DHT22;4452;50.756;4.472;2022-07-22T13:05:35;26.30;99.90
8832;DHT22;4452;50.756;4.472;2022-07-22T13:08:02;26.30;99.90
8832;DHT22;4452;50.756;4.472;2022-07-22T13:10:27;26.50;99.90
8832;DHT22;4452;50.756;4.472;2022-07-22T13:12:54;25.40;99.90
8832;DHT22;4452;50.756;4.472;2022-07-22T13:15:20;25.40;99.90
8832;DHT22;4452;50.756;4.472;2022-07-22T13:17:46;24.90;99.90
8832;DHT22;4452;50.756;4.472;2022-07-22T13:20:14;24.50;99.90
8832;DHT22;4452;50.756;4.472;2022-07-22T13:22:42;24.80;99.90
8832;DHT22;4452;50.756;4.472;2022-07-22T13:25:08;24.60;99.90
8832;DHT22;4452;50.756;4.472;2022-07-22T13:27:34;25.20;99.90
8832;DHT22;4452;50.756;4.472;2022-07-22T13:30:00;25.70;99.90
8832;DHT22;4452;50.756;4.472;2022-07-22T13:32:25;25.70;99.90
8832;DHT22;4452;50.756;4.472;2022-07-22T13:34:51;25.20;99.90
8832;DHT22;4452;50.756;4.472;2022-07-22T13:37:17;25.20;99.90
8832;DHT22;4452;50.756;4.472;2022-07-22T13:39:43;25.30;99.90
8832;DHT22;4452;50.756;4.472;2022-07-22T13:42:12;25.40;99.90
8832;DHT22;4452;50.756;4.472;2022-07-22T13:44:38;25.30;99.90
8832;DHT22;4452;50.756;4.472;2022-07-22T13:47:04;25.10;99.90
8832;DHT22;4452;50.756;4.472;2022-07-22T13:49:30;25.10;99.90
8832;DHT22;4452;50.756;4.472;2022-07-22T13:51:56;25.30;99.90
8832;DHT22;4452;50.756;4.472;2022-07-22T13:54:21;25.60;99.90
8832;DHT22;4452;50.756;4.472;2022-07-22T13:56:47;25.40;99.90
8832;DHT22;4452;50.756;4.472;2022-07-22T13:59:14;25.10;99.90
8832;DHT22;4452;50.756;4.472;2022-07-22T14:01:40;25.20;99.90
8832;DHT22;4452;50.756;4.472;2022-07-22T14:04:06;25.30;99.90
8832;DHT22;4452;50.756;4.472;2022-07-22T14:06:35;25.80;99.90
8832;DHT22;4452;50.756;4.472;2022-07-22T14:09:02;26.00;99.90
8832;DHT22;4452;50.756;4.472;2022-07-22T14:11:29;26.10;99.90
8832;DHT22;4452;50.756;4.472;2022-07-22T14:13:54;26.00;99.90
8832;DHT22;4452;50.756;4.472;2022-07-22T14:16:20;25.70;99.90
8832;DHT22;4452;50.756;4.472;2022-07-22T14:19:05;25.20;99.90
8832;DHT22;4452;50.756;4.472;2022-07-22T14:21:33;25.10;99.90
8832;DHT22;4452;50.756;4.472;2022-07-22T14:23:59;24.40;99.90
8832;DHT22;4452;50.756;4.472;2022-07-22T14:26:25;24.00;99.90
8832;DHT22;4452;50.756;4.472;2022-07-22T14:28:51;23.80;99.90
8832;DHT22;4452;50.756;4.472;2022-07-22T14:31:16;23.50;99.90
8832;DHT22;4452;50.756;4.472;2022-07-22T14:33:42;23.60;99.90
8832;DHT22;4452;50.756;4.472;2022-07-22T14:36:08;23.60;99.90
8832;DHT22;4452;50.756;4.472;2022-07-22T14:38:34;23.60;99.90
8832;DHT22;4452;50.756;4.472;2022-07-22T14:40:59;23.60;99.90
8832;DHT22;4452;50.756;4.472;2022-07-22T14:43:25;23.50;99.90
8832;DHT22;4452;50.756;4.472;2022-07-22T14:45:51;23.20;99.90
8832;DHT22;4452;50.756;4.472;2022-07-22T14:48:17;23.00;99.90
8832;DHT22;4452;50.756;4.472;2022-07-22T14:50:43;23.10;99.90
8832;DHT22;4452;50.756;4.472;2022-07-22T14:53:09;23.10;99.90
8832;DHT22;4452;50.756;4.472;2022-07-22T14:55:34;22.90;99.90
8832;DHT22;4452;50.756;4.472;2022-07-22T14:58:00;22.90;99.90
8832;DHT22;4452;50.756;4.472;2022-07-22T15:00:26;22.80;99.90
8832;DHT22;4452;50.756;4.472;2022-07-22T15:02:51;22.80;99.90
8832;DHT22;4452;50.756;4.472;2022-07-22T15:05:17;22.80;99.90
8832;DHT22;4452;50.756;4.472;2022-07-22T15:07:43;22.90;99.90
8832;DHT22;4452;50.756;4.472;2022-07-22T15:10:09;22.80;99.90
8832;DHT22;4452;50.756;4.472;2022-07-22T15:12:36;23.10;99.90
8832;DHT22;4452;50.756;4.472;2022-07-22T15:15:02;23.00;99.90
8832;DHT22;4452;50.756;4.472;2022-07-22T15:17:28;22.80;99.90
8832;DHT22;4452;50.756;4.472;2022-07-22T15:19:53;23.10;99.90
8832;DHT22;4452;50.756;4.472;2022-07-22T15:22:19;23.10;99.90
8832;DHT22;4452;50.756;4.472;2022-07-22T15:24:45;23.30;99.90
8832;DHT22;4452;50.756;4.472;2022-07-22T15:27:10;23.40;99.90
8832;DHT22;4452;50.756;4.472;2022-07-22T15:29:36;23.20;99.90
8832;DHT22;4452;50.756;4.472;2022-07-22T15:32:02;23.00;99.90
8832;DHT22;4452;50.756;4.472;2022-07-22T15:34:31;23.10;99.90
8832;DHT22;4452;50.756;4.472;2022-07-22T15:36:58;23.10;99.90
8832;DHT22;4452;50.756;4.472;2022-07-22T15:39:24;23.20;99.90
8832;DHT22;4452;50.756;4.472;2022-07-22T15:41:55;23.00;99.90
8832;DHT22;4452;50.756;4.472;2022-07-22T15:44:21;23.10;99.90
8832;DHT22;4452;50.756;4.472;2022-07-22T15:46:50;22.80;99.90
8832;DHT22;4452;50.756;4.472;2022-07-22T15:49:16;22.90;99.90
8832;DHT22;4452;50.756;4.472;2022-07-22T15:51:42;22.90;99.90
8832;DHT22;4452;50.756;4.472;2022-07-22T15:54:08;22.80;99.90
8832;DHT22;4452;50.756;4.472;2022-07-22T15:56:34;22.60;99.90
8832;DHT22;4452;50.756;4.472;2022-07-22T15:59:00;22.70;99.90
8832;DHT22;4452;50.756;4.472;2022-07-22T16:01:44;22.60;99.90
8832;DHT22;4452;50.756;4.472;2022-07-22T16:04:10;22.80;99.90
8832;DHT22;4452;50.756;4.472;2022-07-22T16:06:35;22.70;99.90
8832;DHT22;4452;50.756;4.472;2022-07-22T16:09:02;22.80;99.90
8832;DHT22;4452;50.756;4.472;2022-07-22T16:11:28;22.60;99.90
8832;DHT22;4452;50.756;4.472;2022-07-22T16:13:53;22.30;99.90
8832;DHT22;4452;50.756;4.472;2022-07-22T16:16:19;22.30;99.90
8832;DHT22;4452;50.756;4.472;2022-07-22T16:18:45;22.10;99.90
8832;DHT22;4452;50.756;4.472;2022-07-22T16:21:11;22.10;99.90
8832;DHT22;4452;50.756;4.472;2022-07-22T16:23:37;22.30;99.90
8832;DHT22;4452;50.756;4.472;2022-07-22T16:26:03;22.30;99.90
8832;DHT22;4452;50.756;4.472;2022-07-22T16:28:28;22.30;99.90
8832;DHT22;4452;50.756;4.472;2022-07-22T16:30:54;22.20;99.90
8832;DHT22;4452;50.756;4.472;2022-07-22T16:33:20;22.20;99.90
8832;DHT22;4452;50.756;4.472;2022-07-22T16:35:45;22.50;99.90
8832;DHT22;4452;50.756;4.472;2022-07-22T16:38:11;22.40;99.90
8832;DHT22;4452;50.756;4.472;2022-07-22T16:40:36;22.30;99.90
8832;DHT22;4452;50.756;4.472;2022-07-22T16:43:02;22.30;99.90
8832;DHT22;4452;50.756;4.472;2022-07-22T16:45:28;22.10;99.90
8832;DHT22;4452;50.756;4.472;2022-07-22T16:47:55;22.20;99.90
8832;DHT22;4452;50.756;4.472;2022-07-22T16:50:21;22.20;99.90